createdAt,value
2019-01-30T00:00:43.813Z,84.90
2019-01-30T00:03:12.257Z,84.70
2019-01-30T00:05:40.627Z,84.70
2019-01-30T00:08:09.089Z,85.10
2019-01-30T00:10:37.583Z,85.20
2019-01-30T00:13:05.965Z,85.30
2019-01-30T00:15:34.397Z,85.10
2019-01-30T00:18:02.813Z,85.10
2019-01-30T00:20:31.195Z,85.10
2019-01-30T00:22:59.588Z,85.40
2019-01-30T00:25:28.043Z,85.60
2019-01-30T00:27:56.579Z,85.80
2019-01-30T00:30:26.489Z,85.70
2019-01-30T00:32:54.929Z,85.60
2019-01-30T00:35:23.416Z,85.40
2019-01-30T00:37:51.888Z,85.40
2019-01-30T00:40:21.847Z,85.40
2019-01-30T00:42:50.391Z,85.30
2019-01-30T00:45:20.934Z,85.80
2019-01-30T00:47:49.423Z,86.70
2019-01-30T00:50:20.105Z,86.90
2019-01-30T00:52:48.484Z,86.90
2019-01-30T00:55:16.886Z,87.60
2019-01-30T00:57:45.293Z,87.80
2019-01-30T01:00:27.713Z,87.90
2019-01-30T01:02:56.134Z,88.10
2019-01-30T01:05:24.525Z,87.90
2019-01-30T01:07:53.173Z,88.00
2019-01-30T01:10:21.910Z,87.80
2019-01-30T01:12:50.416Z,87.70
2019-01-30T01:15:18.812Z,87.80
2019-01-30T01:17:47.171Z,88.10
2019-01-30T01:20:23.121Z,88.00
2019-01-30T01:22:51.623Z,88.00
2019-01-30T01:25:20.075Z,87.90
2019-01-30T01:27:48.580Z,88.30
2019-01-30T01:30:25.123Z,88.20
2019-01-30T01:32:52.730Z,88.00
2019-01-30T01:35:21.114Z,87.70
2019-01-30T01:37:49.516Z,87.60
2019-01-30T01:40:18.033Z,87.60
2019-01-30T01:42:46.384Z,88.00
2019-01-30T01:45:20.558Z,87.50
2019-01-30T01:47:48.953Z,88.00
2019-01-30T01:50:19.723Z,87.60
2019-01-30T01:52:48.266Z,87.40
2019-01-30T01:55:16.705Z,87.30
2019-01-30T01:57:45.106Z,87.30
2019-01-30T02:00:16.859Z,87.20
2019-01-30T02:02:45.377Z,87.00
2019-01-30T02:05:18.591Z,87.30
2019-01-30T02:07:47.025Z,86.80
2019-01-30T02:10:17.729Z,86.20
2019-01-30T02:12:46.140Z,86.40
2019-01-30T02:15:17.120Z,86.30
2019-01-30T02:17:45.619Z,86.40
2019-01-30T02:20:17.073Z,86.60
2019-01-30T02:22:45.593Z,86.10
2019-01-30T02:25:13.966Z,85.90
2019-01-30T02:27:42.347Z,85.80
2019-01-30T02:30:14.175Z,86.00
2019-01-30T02:32:42.565Z,85.60
2019-01-30T02:35:10.944Z,85.40
2019-01-30T02:37:39.359Z,85.80
2019-01-30T02:40:10.484Z,85.60
2019-01-30T02:42:38.939Z,86.10
2019-01-30T02:45:10.536Z,85.90
2019-01-30T02:47:38.963Z,86.60
2019-01-30T02:50:12.339Z,86.40
2019-01-30T02:52:40.744Z,86.40
2019-01-30T02:55:11.252Z,86.20
2019-01-30T02:57:39.694Z,85.70
2019-01-30T03:00:20.370Z,85.80
2019-01-30T03:02:48.822Z,85.90
2019-01-30T03:05:17.271Z,85.90
2019-01-30T03:07:45.766Z,85.70
2019-01-30T03:10:16.853Z,85.40
2019-01-30T03:12:45.313Z,84.90
2019-01-30T03:15:15.775Z,84.80
2019-01-30T03:17:44.137Z,84.80
2019-01-30T03:20:15.294Z,84.90
2019-01-30T03:22:43.672Z,84.80
2019-01-30T03:25:17.023Z,85.10
2019-01-30T03:27:45.430Z,85.30
2019-01-30T03:30:20.055Z,84.90
2019-01-30T03:32:48.438Z,84.70
2019-01-30T03:35:16.823Z,85.00
2019-01-30T03:37:45.193Z,85.20
2019-01-30T03:40:18.259Z,85.20
2019-01-30T03:42:46.861Z,85.00
2019-01-30T03:45:18.175Z,85.20
2019-01-30T03:47:46.549Z,85.20
2019-01-30T03:50:15.546Z,85.30
2019-01-30T03:52:43.929Z,85.50
2019-01-30T03:55:17.096Z,85.80
2019-01-30T03:57:45.487Z,85.70
2019-01-30T04:00:19.516Z,86.40
2019-01-30T04:02:47.911Z,86.80
2019-01-30T04:05:16.337Z,86.70
2019-01-30T04:07:44.723Z,86.80
2019-01-30T04:10:15.939Z,86.80
2019-01-30T04:12:44.430Z,87.10
2019-01-30T04:15:12.808Z,86.90
2019-01-30T04:17:41.249Z,87.00
2019-01-30T04:20:17.683Z,87.50
2019-01-30T04:22:46.105Z,87.40
2019-01-30T04:25:16.137Z,87.40
2019-01-30T04:27:44.509Z,87.50
2019-01-30T04:30:26.930Z,87.20
2019-01-30T04:32:55.321Z,87.40
2019-01-30T04:35:23.693Z,87.00
2019-01-30T04:37:52.113Z,87.30
2019-01-30T04:40:21.732Z,86.20
2019-01-30T04:42:50.156Z,85.90
2019-01-30T04:45:23.961Z,86.00
2019-01-30T04:47:52.328Z,85.80
2019-01-30T04:50:20.699Z,86.10
2019-01-30T04:52:49.051Z,86.10
2019-01-30T04:55:17.660Z,86.10
2019-01-30T04:57:46.087Z,86.20
2019-01-30T05:00:17.537Z,85.70
2019-01-30T05:02:46.010Z,85.60
2019-01-30T05:05:14.369Z,85.70
2019-01-30T05:07:42.758Z,86.00
2019-01-30T05:10:12.754Z,85.80
2019-01-30T05:12:41.115Z,85.90
2019-01-30T05:15:16.557Z,85.90
2019-01-30T05:17:45.005Z,85.70
2019-01-30T05:20:15.713Z,85.40
2019-01-30T05:22:44.114Z,85.10
2019-01-30T05:25:12.478Z,85.50
2019-01-30T05:27:40.882Z,85.20
2019-01-30T05:30:21.307Z,85.50
2019-01-30T05:32:49.750Z,85.60
2019-01-30T05:35:18.183Z,85.40
2019-01-30T05:37:46.580Z,85.20
2019-01-30T05:40:20.306Z,85.00
2019-01-30T05:42:48.622Z,85.20
2019-01-30T05:45:17.753Z,85.10
2019-01-30T05:47:46.180Z,85.00
2019-01-30T05:50:15.398Z,85.20
2019-01-30T05:52:43.979Z,85.30
2019-01-30T05:55:14.440Z,84.80
2019-01-30T05:57:42.820Z,84.90
2019-01-30T06:00:30.342Z,85.10
2019-01-30T06:02:58.796Z,84.90
2019-01-30T06:05:27.227Z,84.70
2019-01-30T06:07:55.647Z,84.70
2019-01-30T06:10:24.046Z,84.20
2019-01-30T06:12:52.440Z,84.30
2019-01-30T06:15:21.043Z,84.20
2019-01-30T06:17:49.504Z,83.80
2019-01-30T06:20:25.764Z,83.80
2019-01-30T06:22:54.665Z,84.00
2019-01-30T06:25:23.354Z,84.40
2019-01-30T06:27:51.928Z,85.00
2019-01-30T06:30:22.419Z,85.20
2019-01-30T06:32:50.794Z,85.50
2019-01-30T06:35:19.208Z,86.20
2019-01-30T06:37:47.578Z,85.60
2019-01-30T06:40:21.368Z,84.40
2019-01-30T06:42:49.879Z,83.90
2019-01-30T06:45:18.226Z,83.90
2019-01-30T06:47:46.655Z,83.80
2019-01-30T06:50:15.142Z,84.00
2019-01-30T06:52:43.632Z,83.80
2019-01-30T06:55:12.093Z,84.10
2019-01-30T06:57:40.514Z,83.30
2019-01-30T07:00:12.351Z,82.90
2019-01-30T07:02:40.837Z,82.80
2019-01-30T07:05:09.264Z,83.20
2019-01-30T07:07:37.720Z,83.10
2019-01-30T07:10:09.442Z,83.20
2019-01-30T07:12:37.892Z,83.60
2019-01-30T07:15:07.504Z,82.50
2019-01-30T07:17:35.925Z,82.50
2019-01-30T07:20:07.462Z,82.40
2019-01-30T07:22:35.841Z,82.40
2019-01-30T07:25:06.600Z,82.20
2019-01-30T07:27:35.030Z,82.50
2019-01-30T07:30:04.472Z,82.70
2019-01-30T07:32:41.930Z,83.00
2019-01-30T07:35:02.942Z,83.20
2019-01-30T07:37:31.370Z,83.70
2019-01-30T07:39:59.872Z,83.40
2019-01-30T07:42:28.262Z,83.10
2019-01-30T07:44:56.645Z,83.30
2019-01-30T07:47:25.144Z,83.00
2019-01-30T07:49:53.513Z,83.10
2019-01-30T07:52:21.889Z,83.20
2019-01-30T07:54:50.383Z,83.20
2019-01-30T07:57:18.834Z,82.80
2019-01-30T07:59:47.221Z,82.90
2019-01-30T08:02:16.704Z,82.90
2019-01-30T08:04:45.152Z,82.80
2019-01-30T08:07:14.260Z,82.90
2019-01-30T08:09:42.668Z,82.20
2019-01-30T08:12:12.693Z,82.50
2019-01-30T08:14:41.297Z,82.60
2019-01-30T08:17:09.694Z,81.80
2019-01-30T08:19:38.104Z,82.10
2019-01-30T08:22:06.510Z,82.30
2019-01-30T08:24:35.299Z,82.20
2019-01-30T08:27:03.961Z,82.10
2019-01-30T08:29:32.483Z,82.30
2019-01-30T08:32:01.207Z,82.40
2019-01-30T08:34:29.842Z,82.40
2019-01-30T08:36:58.165Z,81.70
2019-01-30T08:39:26.599Z,81.20
2019-01-30T08:41:54.961Z,80.90
2019-01-30T08:44:23.360Z,82.10
2019-01-30T08:46:51.870Z,83.40
2019-01-30T08:49:20.254Z,83.20
2019-01-30T08:51:48.631Z,83.50
2019-01-30T08:54:17.052Z,84.10
2019-01-30T08:56:52.731Z,84.50
2019-01-30T08:59:15.603Z,84.10
2019-01-30T09:01:44.082Z,83.80
2019-01-30T09:04:12.513Z,84.30
2019-01-30T09:06:40.952Z,83.90
2019-01-30T09:09:09.518Z,83.80
2019-01-30T09:11:37.965Z,83.50
2019-01-30T09:14:06.357Z,84.00
2019-01-30T09:16:34.836Z,84.40
2019-01-30T09:19:03.304Z,84.20
2019-01-30T09:21:31.700Z,84.40
2019-01-30T09:24:00.145Z,84.40
2019-01-30T09:26:28.556Z,84.30
2019-01-30T09:28:57.034Z,83.90
2019-01-30T09:31:25.462Z,83.50
2019-01-30T09:33:53.947Z,84.80
2019-01-30T09:36:22.399Z,84.60
2019-01-30T09:38:50.922Z,84.70
2019-01-30T09:41:19.582Z,84.00
2019-01-30T09:43:48.095Z,84.60
2019-01-30T09:46:16.594Z,85.30
2019-01-30T09:48:44.987Z,86.30
2019-01-30T09:51:13.415Z,85.80
2019-01-30T09:53:42.066Z,85.20
2019-01-30T09:56:10.499Z,84.60
2019-01-30T09:58:38.888Z,84.40
2019-01-30T10:01:07.367Z,84.00
2019-01-30T10:03:36.621Z,84.00
2019-01-30T10:06:07.020Z,83.80
2019-01-30T10:08:35.487Z,83.90
2019-01-30T10:11:03.939Z,83.90
2019-01-30T10:13:32.476Z,83.80
2019-01-30T10:16:00.963Z,83.60
2019-01-30T10:18:29.396Z,83.60
2019-01-30T10:20:57.900Z,84.20
2019-01-30T10:23:26.292Z,84.00
2019-01-30T10:25:54.654Z,83.50
2019-01-30T10:28:23.014Z,83.40
2019-01-30T10:30:51.368Z,83.10
2019-01-30T10:33:19.895Z,83.30
2019-01-30T10:35:48.310Z,83.00
2019-01-30T10:38:16.670Z,82.30
2019-01-30T10:40:45.043Z,81.60
2019-01-30T10:43:13.706Z,81.50
2019-01-30T10:45:42.084Z,80.60
2019-01-30T10:48:10.450Z,79.30
2019-01-30T10:50:38.868Z,78.60
2019-01-30T10:53:07.239Z,79.40
2019-01-30T10:55:36.566Z,79.20
2019-01-30T10:58:07.677Z,79.60
2019-01-30T11:00:39.002Z,79.90
2019-01-30T11:03:07.434Z,80.00
2019-01-30T11:05:35.939Z,80.10
2019-01-30T11:08:04.844Z,80.30
2019-01-30T11:10:33.230Z,82.00
2019-01-30T11:13:01.719Z,82.70
2019-01-30T11:15:30.797Z,82.00
2019-01-30T11:17:59.653Z,82.00
2019-01-30T11:20:28.903Z,82.90
2019-01-30T11:22:57.302Z,83.60
2019-01-30T11:25:31.312Z,82.40
2019-01-30T11:27:59.779Z,81.90
2019-01-30T11:30:28.187Z,80.30
2019-01-30T11:32:56.546Z,78.00
2019-01-30T11:35:24.970Z,78.40
2019-01-30T11:37:53.464Z,76.70
2019-01-30T11:40:22.974Z,76.70
2019-01-30T11:42:51.479Z,78.40
2019-01-30T11:45:34.914Z,77.60
2019-01-30T11:48:03.375Z,77.80
2019-01-30T11:50:31.746Z,77.30
2019-01-30T11:53:00.130Z,77.60
2019-01-30T11:55:28.543Z,77.10
2019-01-30T11:57:56.955Z,77.30
2019-01-30T12:00:32.985Z,75.20
2019-01-30T12:03:01.538Z,75.50
2019-01-30T12:05:29.903Z,73.60
2019-01-30T12:07:58.373Z,73.50
2019-01-30T12:10:26.737Z,72.90
2019-01-30T12:12:55.129Z,72.30
2019-01-30T12:15:25.074Z,70.60
2019-01-30T12:17:53.441Z,70.50
2019-01-30T12:20:21.833Z,70.60
2019-01-30T12:22:50.325Z,71.70
2019-01-30T12:25:22.547Z,71.20
2019-01-30T12:27:51.182Z,70.50
2019-01-30T12:30:27.379Z,70.80
2019-01-30T12:32:55.745Z,72.10
2019-01-30T12:35:24.286Z,71.80
2019-01-30T12:37:52.693Z,72.10
2019-01-30T12:40:22.217Z,73.10
2019-01-30T12:42:50.684Z,73.80
2019-01-30T12:45:22.366Z,74.60
2019-01-30T12:47:50.812Z,74.20
2019-01-30T12:50:19.304Z,73.90
2019-01-30T12:52:47.692Z,75.80
2019-01-30T12:55:16.062Z,73.10
2019-01-30T12:57:44.510Z,72.80
2019-01-30T13:00:21.356Z,71.30
2019-01-30T13:02:49.764Z,70.60
2019-01-30T13:05:18.856Z,70.30
2019-01-30T13:07:47.291Z,69.90
2019-01-30T13:10:15.670Z,70.00
2019-01-30T13:12:44.116Z,70.70
2019-01-30T13:15:15.075Z,71.00
2019-01-30T13:17:43.513Z,70.70
2019-01-30T13:20:19.820Z,70.50
2019-01-30T13:22:48.293Z,71.70
2019-01-30T13:25:19.420Z,71.50
2019-01-30T13:27:47.939Z,72.10
2019-01-30T13:30:19.374Z,72.20
2019-01-30T13:32:47.850Z,71.90
2019-01-30T13:35:16.211Z,70.30
2019-01-30T13:37:44.588Z,69.40
2019-01-30T13:40:16.122Z,68.90
2019-01-30T13:42:44.526Z,68.80
2019-01-30T13:45:13.547Z,69.80
2019-01-30T13:47:41.911Z,68.60
2019-01-30T13:50:13.649Z,67.70
2019-01-30T13:52:42.207Z,67.50
2019-01-30T13:55:11.488Z,67.80
2019-01-30T13:57:39.896Z,68.60
2019-01-30T14:00:26.634Z,68.70
2019-01-30T14:02:55.024Z,69.60
2019-01-30T14:05:23.420Z,68.50
2019-01-30T14:07:51.816Z,68.40
2019-01-30T14:10:20.201Z,67.50
2019-01-30T14:12:48.568Z,67.60
2019-01-30T14:15:19.589Z,67.60
2019-01-30T14:17:48.093Z,67.70
2019-01-30T14:20:17.729Z,66.80
2019-01-30T14:22:46.276Z,65.70
2019-01-30T14:25:15.597Z,65.10
2019-01-30T14:27:44.053Z,65.10
2019-01-30T14:30:18.619Z,64.80
2019-01-30T14:32:47.033Z,65.40
2019-01-30T14:35:15.539Z,65.60
2019-01-30T14:37:43.967Z,65.20
2019-01-30T14:40:15.591Z,64.90
2019-01-30T14:42:44.003Z,64.40
2019-01-30T14:45:15.111Z,64.10
2019-01-30T14:47:43.463Z,64.30
2019-01-30T14:50:17.175Z,64.90
2019-01-30T14:52:45.764Z,65.10
2019-01-30T14:55:14.396Z,65.50
2019-01-30T14:57:42.855Z,65.50
2019-01-30T15:00:14.657Z,66.50
2019-01-30T15:02:43.039Z,66.10
2019-01-30T15:05:21.948Z,66.90
2019-01-30T15:07:43.722Z,67.90
2019-01-30T15:10:20.463Z,66.80
2019-01-30T15:12:48.879Z,66.90
2019-01-30T15:15:25.940Z,66.70
2019-01-30T15:17:54.383Z,67.90
2019-01-30T15:20:25.361Z,69.00
2019-01-30T15:22:53.894Z,70.00
2019-01-30T15:25:23.809Z,70.70
2019-01-30T15:27:52.236Z,71.20
2019-01-30T15:30:23.915Z,71.60
2019-01-30T15:32:52.482Z,72.20
2019-01-30T15:35:20.859Z,72.20
2019-01-30T15:37:49.284Z,72.70
2019-01-30T15:40:23.223Z,74.00
2019-01-30T15:42:51.652Z,74.80
2019-01-30T15:45:21.921Z,74.00
2019-01-30T15:47:50.359Z,73.90
2019-01-30T15:50:21.519Z,74.00
2019-01-30T15:52:49.922Z,74.00
2019-01-30T15:55:18.377Z,74.10
2019-01-30T15:57:49.911Z,73.70
2019-01-30T16:00:36.183Z,74.30
2019-01-30T16:03:05.295Z,73.30
2019-01-30T16:05:44.219Z,74.20
2019-01-30T16:08:03.773Z,74.10
2019-01-30T16:10:32.305Z,73.50
2019-01-30T16:13:00.703Z,74.60
2019-01-30T16:15:32.423Z,73.70
2019-01-30T16:18:00.888Z,74.10
2019-01-30T16:20:29.295Z,73.60
2019-01-30T16:22:57.798Z,72.90
2019-01-30T16:25:26.250Z,72.80
2019-01-30T16:27:54.633Z,73.10
2019-01-30T16:30:25.232Z,72.80
2019-01-30T16:32:53.887Z,73.30
2019-01-30T16:35:25.129Z,73.00
2019-01-30T16:37:53.537Z,73.00
2019-01-30T16:40:21.906Z,73.20
2019-01-30T16:42:50.275Z,73.40
2019-01-30T16:45:24.767Z,73.80
2019-01-30T16:47:53.257Z,73.10
2019-01-30T16:50:21.694Z,72.90
2019-01-30T16:52:50.181Z,73.20
2019-01-30T16:55:19.987Z,73.90
2019-01-30T16:57:48.407Z,73.60
2019-01-30T17:00:25.195Z,73.20
2019-01-30T17:02:53.945Z,72.90
2019-01-30T17:05:22.489Z,72.30
2019-01-30T17:07:50.927Z,72.20
2019-01-30T17:10:19.510Z,72.40
2019-01-30T17:12:47.890Z,72.70
2019-01-30T17:15:24.713Z,73.00
2019-01-30T17:17:53.099Z,73.70
2019-01-30T17:20:23.651Z,74.20
2019-01-30T17:22:52.119Z,74.80
2019-01-30T17:25:20.651Z,75.30
2019-01-30T17:27:49.047Z,76.20
2019-01-30T17:30:29.575Z,76.70
2019-01-30T17:32:57.982Z,76.00
2019-01-30T17:35:26.393Z,77.60
2019-01-30T17:37:54.809Z,76.10
2019-01-30T17:40:30.257Z,75.40
2019-01-30T17:42:58.867Z,74.60
2019-01-30T17:45:27.537Z,74.70
2019-01-30T17:47:55.897Z,75.30
2019-01-30T17:50:30.311Z,75.60
2019-01-30T17:52:58.687Z,75.60
2019-01-30T17:55:27.131Z,75.20
2019-01-30T17:57:55.521Z,76.10
2019-01-30T18:00:37.776Z,74.70
2019-01-30T18:03:06.207Z,74.60
2019-01-30T18:05:37.565Z,75.90
2019-01-30T18:08:05.932Z,75.50
2019-01-30T18:10:34.332Z,74.70
2019-01-30T18:13:02.719Z,74.20
2019-01-30T18:15:31.122Z,74.30
2019-01-30T18:17:59.621Z,74.70
2019-01-30T18:20:28.065Z,75.50
2019-01-30T18:23:02.043Z,75.40
2019-01-30T18:25:31.188Z,74.90
2019-01-30T18:28:04.262Z,75.40
2019-01-30T18:30:33.132Z,75.50
2019-01-30T18:33:01.672Z,75.80
2019-01-30T18:35:29.967Z,76.80
2019-01-30T18:37:58.331Z,76.50
2019-01-30T18:40:28.880Z,76.20
2019-01-30T18:42:57.254Z,76.20
2019-01-30T18:45:26.970Z,76.40
2019-01-30T18:47:55.918Z,76.60
2019-01-30T18:50:26.955Z,76.30
2019-01-30T18:52:55.348Z,76.60
2019-01-30T18:55:24.071Z,76.50
2019-01-30T18:57:52.512Z,76.50
2019-01-30T19:00:29.156Z,77.00
2019-01-30T19:02:59.206Z,77.60
2019-01-30T19:05:28.229Z,78.10
2019-01-30T19:07:56.639Z,78.50
2019-01-30T19:10:25.166Z,78.70
2019-01-30T19:12:53.594Z,79.10
2019-01-30T19:15:24.145Z,79.10
2019-01-30T19:17:52.545Z,79.20
2019-01-30T19:20:26.519Z,78.50
2019-01-30T19:22:54.995Z,78.40
2019-01-30T19:25:23.430Z,78.30
2019-01-30T19:27:51.852Z,78.40
2019-01-30T19:30:22.901Z,79.30
2019-01-30T19:32:51.277Z,79.10
2019-01-30T19:35:22.068Z,78.90
2019-01-30T19:37:50.447Z,79.60
2019-01-30T19:40:20.670Z,80.90
2019-01-30T19:42:49.007Z,80.70
2019-01-30T19:45:20.736Z,80.30
2019-01-30T19:47:49.228Z,80.20
2019-01-30T19:50:22.634Z,80.90
2019-01-30T19:52:51.035Z,80.80
2019-01-30T19:55:19.486Z,81.30
2019-01-30T19:57:47.833Z,80.60
2019-01-30T20:00:19.441Z,80.30
2019-01-30T20:02:48.100Z,80.10
2019-01-30T20:05:16.567Z,79.70
2019-01-30T20:07:45.085Z,80.50
2019-01-30T20:10:16.795Z,80.60
2019-01-30T20:12:45.570Z,80.80
2019-01-30T20:15:14.030Z,81.10
2019-01-30T20:17:42.431Z,81.00
2019-01-30T20:20:16.178Z,80.30
2019-01-30T20:22:44.717Z,79.70
2019-01-30T20:25:18.976Z,79.40
2019-01-30T20:27:47.361Z,79.40
2019-01-30T20:30:18.578Z,78.70
2019-01-30T20:32:46.967Z,78.60
2019-01-30T20:35:15.365Z,77.50
2019-01-30T20:37:43.790Z,76.80
2019-01-30T20:40:15.467Z,78.10
2019-01-30T20:42:43.852Z,78.50
2019-01-30T20:45:14.497Z,78.50
2019-01-30T20:47:43.016Z,78.70
2019-01-30T20:50:17.149Z,78.00
2019-01-30T20:52:45.651Z,76.40
2019-01-30T20:55:16.497Z,76.80
2019-01-30T20:57:44.963Z,76.10
2019-01-30T21:00:16.773Z,76.60
2019-01-30T21:02:45.260Z,78.70
2019-01-30T21:05:13.625Z,79.20
2019-01-30T21:07:42.063Z,79.30
2019-01-30T21:10:18.990Z,79.00
2019-01-30T21:12:47.508Z,77.40
2019-01-30T21:15:16.663Z,76.90
2019-01-30T21:17:47.836Z,76.90
2019-01-30T21:20:17.168Z,76.70
2019-01-30T21:22:45.621Z,78.70
2019-01-30T21:25:16.798Z,80.00
2019-01-30T21:27:45.262Z,80.20
2019-01-30T21:30:19.698Z,79.30
2019-01-30T21:32:48.218Z,79.10
2019-01-30T21:35:16.655Z,79.70
2019-01-30T21:37:48.923Z,78.90
2019-01-30T21:40:17.423Z,78.50
2019-01-30T21:42:46.788Z,78.90
2019-01-30T21:45:17.340Z,79.80
2019-01-30T21:47:45.757Z,80.00
2019-01-30T21:50:14.377Z,79.20
2019-01-30T21:52:42.753Z,79.00
2019-01-30T21:55:14.457Z,78.80
2019-01-30T21:57:44.494Z,78.70
2019-01-30T22:00:18.506Z,78.50
2019-01-30T22:02:47.089Z,78.40
2019-01-30T22:05:16.617Z,78.60
2019-01-30T22:07:45.681Z,78.20
2019-01-30T22:10:20.464Z,77.50
2019-01-30T22:12:48.890Z,77.00
2019-01-30T22:15:17.724Z,76.10
2019-01-30T22:17:49.526Z,78.10
2019-01-30T22:20:23.915Z,78.40
2019-01-30T22:22:52.476Z,78.80
2019-01-30T22:25:22.440Z,79.70
2019-01-30T22:27:50.961Z,79.60
2019-01-30T22:30:26.945Z,79.60
2019-01-30T22:32:55.452Z,80.40
2019-01-30T22:35:23.908Z,79.60
2019-01-30T22:37:52.488Z,78.10
2019-01-30T22:40:21.052Z,77.30
2019-01-30T22:42:49.530Z,77.20
2019-01-30T22:45:19.631Z,76.50
2019-01-30T22:47:48.089Z,77.70
2019-01-30T22:50:17.757Z,78.10
2019-01-30T22:52:46.491Z,77.50
2019-01-30T22:55:16.849Z,78.50
2019-01-30T22:57:45.399Z,78.60
2019-01-30T23:00:59.805Z,79.50
2019-01-30T23:03:37.583Z,80.50
2019-01-30T23:06:26.008Z,80.90
2019-01-30T23:09:33.482Z,80.80
2019-01-30T23:12:25.003Z,82.10
2019-01-30T23:15:14.697Z,82.40
2019-01-30T23:21:17.951Z,80.80
2019-01-30T23:24:23.310Z,82.80
2019-01-30T23:26:55.074Z,82.50
2019-01-30T23:29:32.394Z,80.20
2019-01-30T23:32:12.934Z,80.80
2019-01-30T23:34:47.288Z,83.70
2019-01-30T23:37:19.032Z,84.50
2019-01-30T23:40:02.512Z,83.80
2019-01-30T23:42:58.350Z,83.10
2019-01-30T23:45:39.052Z,82.50
2019-01-30T23:48:20.934Z,82.40
2019-01-30T23:50:52.716Z,84.10
2019-01-30T23:53:26.928Z,85.20
2019-01-30T23:56:04.352Z,84.90
2019-01-30T23:58:42.408Z,84.20
